Terminal Aerodrome Forecast
Issued by NWS

Home | Current Version | Previous Version | Text Only | Print | Product List | Glossary On
Versions: 1 2 3 4 5 6 7 8 9 10 11 12 13
000
FTUS44 KEPZ 240520
TAFDMN
TAF
KDMN 240520Z 2406/2506 24012G22KT P6SM VCSH BKN080 OVC150
     FM241400 24023G33KT P6SM SCT080 OVC180
     FM250000 27016G26KT P6SM SCT080 BKN200=

USA.gov is the U.S. government's official web portal to all federal, state and local government web resources and services.